Prineville, Oregon
Current Conditions -  °F | °C
As of 9:35 PM on Wednesday 22 Oct 2014 (Local Time) from KS39 Reporting Station
Overcast Overcast  
Wind Chill: 57°   Ceiling: 4700
Heat Index: 57°   Visibility: 10mi
Dew Point: 43°   Wind: 8mph
Humidity: 59%   Direction: 190°S
Pressure: 29.82"   Gusts: 15mph
Location:  44.3°N, 120.84°W
Report Text: KS39 230435Z AUTO 19007G13KT 10SM BKN047 BKN075 OVC095 14/06 A2982 RMK AO2
Loading
Personal Weather Stations






























Interactive Weather Map
Tropical Storm Tracking
New forecast layout! Learn more

10-Day Weather Forecast

Advertisements
Track Severe Weather on mobile